sensor_id;sensor_type;location;lat;lon;timestamp;P1;durP1;ratioP1;P2;durP2;ratioP2
56893;SDS011;43392;50.078;13.704;2024-03-06T00:01:48;59.55;;;35.65;;
56893;SDS011;43392;50.078;13.704;2024-03-06T00:04:15;50.17;;;31.25;;
56893;SDS011;43392;50.078;13.704;2024-03-06T00:06:43;53.17;;;30.13;;
56893;SDS011;43392;50.078;13.704;2024-03-06T00:09:09;58.55;;;29.63;;
56893;SDS011;43392;50.078;13.704;2024-03-06T00:11:37;56.65;;;31.27;;
56893;SDS011;43392;50.078;13.704;2024-03-06T00:14:03;56.80;;;30.55;;
56893;SDS011;43392;50.078;13.704;2024-03-06T00:16:30;54.13;;;30.52;;
56893;SDS011;43392;50.078;13.704;2024-03-06T00:18:57;57.30;;;30.38;;
56893;SDS011;43392;50.078;13.704;2024-03-06T00:21:23;55.08;;;31.55;;
56893;SDS011;43392;50.078;13.704;2024-03-06T00:23:51;58.67;;;31.10;;
56893;SDS011;43392;50.078;13.704;2024-03-06T00:26:18;57.63;;;31.58;;
56893;SDS011;43392;50.078;13.704;2024-03-06T00:28:44;56.15;;;32.38;;
56893;SDS011;43392;50.078;13.704;2024-03-06T00:31:11;62.20;;;33.88;;
56893;SDS011;43392;50.078;13.704;2024-03-06T00:33:37;57.30;;;32.22;;
56893;SDS011;43392;50.078;13.704;2024-03-06T00:36:05;57.33;;;32.35;;
56893;SDS011;43392;50.078;13.704;2024-03-06T00:38:32;64.78;;;31.63;;
56893;SDS011;43392;50.078;13.704;2024-03-06T00:41:00;61.72;;;32.00;;
56893;SDS011;43392;50.078;13.704;2024-03-06T00:43:27;58.13;;;32.25;;
56893;SDS011;43392;50.078;13.704;2024-03-06T00:45:54;55.42;;;32.67;;
56893;SDS011;43392;50.078;13.704;2024-03-06T00:48:21;52.53;;;29.13;;
56893;SDS011;43392;50.078;13.704;2024-03-06T00:50:47;63.67;;;32.03;;
56893;SDS011;43392;50.078;13.704;2024-03-06T00:53:14;49.97;;;29.60;;
56893;SDS011;43392;50.078;13.704;2024-03-06T00:55:40;59.65;;;30.65;;
56893;SDS011;43392;50.078;13.704;2024-03-06T00:58:09;54.97;;;30.40;;
56893;SDS011;43392;50.078;13.704;2024-03-06T01:00:35;61.08;;;31.00;;
56893;SDS011;43392;50.078;13.704;2024-03-06T01:03:03;56.30;;;30.13;;
56893;SDS011;43392;50.078;13.704;2024-03-06T01:05:30;58.53;;;32.33;;
56893;SDS011;43392;50.078;13.704;2024-03-06T01:07:57;56.92;;;33.05;;
56893;SDS011;43392;50.078;13.704;2024-03-06T01:10:24;56.53;;;32.92;;
56893;SDS011;43392;50.078;13.704;2024-03-06T01:12:51;61.45;;;31.73;;
56893;SDS011;43392;50.078;13.704;2024-03-06T01:15:19;56.72;;;31.30;;
56893;SDS011;43392;50.078;13.704;2024-03-06T01:17:45;58.97;;;32.08;;
56893;SDS011;43392;50.078;13.704;2024-03-06T01:20:12;58.65;;;31.10;;
56893;SDS011;43392;50.078;13.704;2024-03-06T01:22:39;54.08;;;28.83;;
56893;SDS011;43392;50.078;13.704;2024-03-06T01:25:05;53.20;;;30.85;;
56893;SDS011;43392;50.078;13.704;2024-03-06T01:27:32;53.47;;;31.48;;
56893;SDS011;43392;50.078;13.704;2024-03-06T01:29:59;52.40;;;29.00;;
56893;SDS011;43392;50.078;13.704;2024-03-06T01:32:27;50.65;;;28.85;;
56893;SDS011;43392;50.078;13.704;2024-03-06T01:34:53;60.88;;;32.67;;
56893;SDS011;43392;50.078;13.704;2024-03-06T01:37:20;57.25;;;31.00;;
56893;SDS011;43392;50.078;13.704;2024-03-06T01:39:47;57.00;;;30.60;;
56893;SDS011;43392;50.078;13.704;2024-03-06T01:42:13;53.22;;;28.98;;
56893;SDS011;43392;50.078;13.704;2024-03-06T01:44:43;54.40;;;29.08;;
56893;SDS011;43392;50.078;13.704;2024-03-06T01:47:09;50.80;;;28.15;;
56893;SDS011;43392;50.078;13.704;2024-03-06T01:49:37;54.38;;;29.27;;
56893;SDS011;43392;50.078;13.704;2024-03-06T01:52:04;63.00;;;30.75;;
56893;SDS011;43392;50.078;13.704;2024-03-06T01:54:30;55.03;;;30.70;;
56893;SDS011;43392;50.078;13.704;2024-03-06T01:56:57;50.53;;;30.40;;
56893;SDS011;43392;50.078;13.704;2024-03-06T01:59:28;61.50;;;31.88;;
56893;SDS011;43392;50.078;13.704;2024-03-06T02:01:54;55.90;;;31.23;;
56893;SDS011;43392;50.078;13.704;2024-03-06T02:04:21;58.15;;;30.25;;
56893;SDS011;43392;50.078;13.704;2024-03-06T02:06:52;54.63;;;30.40;;
56893;SDS011;43392;50.078;13.704;2024-03-06T02:09:18;55.42;;;30.75;;
56893;SDS011;43392;50.078;13.704;2024-03-06T02:11:45;57.42;;;31.38;;
56893;SDS011;43392;50.078;13.704;2024-03-06T02:14:12;58.95;;;31.83;;
56893;SDS011;43392;50.078;13.704;2024-03-06T02:16:38;51.58;;;29.05;;
56893;SDS011;43392;50.078;13.704;2024-03-06T02:19:05;49.85;;;28.38;;
56893;SDS011;43392;50.078;13.704;2024-03-06T02:21:33;55.25;;;30.30;;
56893;SDS011;43392;50.078;13.704;2024-03-06T02:24:00;54.60;;;29.23;;
56893;SDS011;43392;50.078;13.704;2024-03-06T02:26:27;57.00;;;29.95;;
56893;SDS011;43392;50.078;13.704;2024-03-06T02:28:54;55.83;;;30.48;;
56893;SDS011;43392;50.078;13.704;2024-03-06T02:31:21;52.17;;;29.00;;
56893;SDS011;43392;50.078;13.704;2024-03-06T02:33:48;56.28;;;31.88;;
56893;SDS011;43392;50.078;13.704;2024-03-06T02:36:16;53.75;;;29.95;;
56893;SDS011;43392;50.078;13.704;2024-03-06T02:38:44;56.38;;;28.60;;
56893;SDS011;43392;50.078;13.704;2024-03-06T02:41:11;53.63;;;29.95;;
56893;SDS011;43392;50.078;13.704;2024-03-06T02:43:40;53.95;;;29.35;;
56893;SDS011;43392;50.078;13.704;2024-03-06T02:46:07;52.47;;;27.98;;
56893;SDS011;43392;50.078;13.704;2024-03-06T02:48:34;50.38;;;29.05;;
56893;SDS011;43392;50.078;13.704;2024-03-06T02:51:01;54.17;;;28.83;;
56893;SDS011;43392;50.078;13.704;2024-03-06T02:53:28;53.92;;;29.70;;
56893;SDS011;43392;50.078;13.704;2024-03-06T02:55:56;59.95;;;30.05;;
56893;SDS011;43392;50.078;13.704;2024-03-06T02:58:22;56.17;;;29.08;;
56893;SDS011;43392;50.078;13.704;2024-03-06T03:00:49;52.03;;;29.42;;
56893;SDS011;43392;50.078;13.704;2024-03-06T03:03:15;56.20;;;30.42;;
56893;SDS011;43392;50.078;13.704;2024-03-06T03:05:42;54.45;;;29.52;;
56893;SDS011;43392;50.078;13.704;2024-03-06T03:08:08;50.22;;;28.70;;
56893;SDS011;43392;50.078;13.704;2024-03-06T03:10:35;58.20;;;31.15;;
56893;SDS011;43392;50.078;13.704;2024-03-06T03:13:03;57.90;;;31.42;;
56893;SDS011;43392;50.078;13.704;2024-03-06T03:15:30;64.47;;;32.00;;
56893;SDS011;43392;50.078;13.704;2024-03-06T03:17:57;59.20;;;30.48;;
56893;SDS011;43392;50.078;13.704;2024-03-06T03:20:24;58.65;;;31.33;;
56893;SDS011;43392;50.078;13.704;2024-03-06T03:22:50;58.83;;;31.15;;
56893;SDS011;43392;50.078;13.704;2024-03-06T03:25:17;57.58;;;30.85;;
56893;SDS011;43392;50.078;13.704;2024-03-06T03:27:47;56.88;;;31.00;;
56893;SDS011;43392;50.078;13.704;2024-03-06T03:30:15;66.07;;;32.78;;
56893;SDS011;43392;50.078;13.704;2024-03-06T03:32:41;56.95;;;31.48;;
56893;SDS011;43392;50.078;13.704;2024-03-06T03:35:08;59.42;;;31.70;;
56893;SDS011;43392;50.078;13.704;2024-03-06T03:37:35;63.03;;;32.10;;
56893;SDS011;43392;50.078;13.704;2024-03-06T03:40:01;58.10;;;31.17;;
56893;SDS011;43392;50.078;13.704;2024-03-06T03:42:28;58.17;;;32.40;;
56893;SDS011;43392;50.078;13.704;2024-03-06T03:44:55;63.17;;;33.05;;
56893;SDS011;43392;50.078;13.704;2024-03-06T03:47:23;55.53;;;32.20;;
56893;SDS011;43392;50.078;13.704;2024-03-06T03:49:49;62.65;;;33.38;;
56893;SDS011;43392;50.078;13.704;2024-03-06T03:52:16;63.13;;;33.35;;
56893;SDS011;43392;50.078;13.704;2024-03-06T03:54:42;62.90;;;32.03;;
56893;SDS011;43392;50.078;13.704;2024-03-06T03:57:09;62.03;;;33.67;;
56893;SDS011;43392;50.078;13.704;2024-03-06T03:59:36;59.38;;;32.22;;
56893;SDS011;43392;50.078;13.704;2024-03-06T04:02:02;60.28;;;32.47;;
56893;SDS011;43392;50.078;13.704;2024-03-06T04:04:30;64.32;;;33.47;;
56893;SDS011;43392;50.078;13.704;2024-03-06T04:06:58;61.58;;;33.00;;
56893;SDS011;43392;50.078;13.704;2024-03-06T04:09:26;64.20;;;33.20;;
56893;SDS011;43392;50.078;13.704;2024-03-06T04:11:53;54.95;;;32.05;;
56893;SDS011;43392;50.078;13.704;2024-03-06T04:14:19;66.70;;;35.30;;
56893;SDS011;43392;50.078;13.704;2024-03-06T04:16:46;65.70;;;34.10;;
56893;SDS011;43392;50.078;13.704;2024-03-06T04:19:13;64.40;;;34.53;;
56893;SDS011;43392;50.078;13.704;2024-03-06T04:21:41;62.50;;;34.70;;
56893;SDS011;43392;50.078;13.704;2024-03-06T04:24:08;63.22;;;35.30;;
56893;SDS011;43392;50.078;13.704;2024-03-06T04:26:35;67.60;;;35.95;;
56893;SDS011;43392;50.078;13.704;2024-03-06T04:29:01;64.18;;;34.47;;
56893;SDS011;43392;50.078;13.704;2024-03-06T04:31:29;61.83;;;33.75;;
56893;SDS011;43392;50.078;13.704;2024-03-06T04:33:55;64.43;;;35.08;;
56893;SDS011;43392;50.078;13.704;2024-03-06T04:36:22;61.50;;;34.30;;
56893;SDS011;43392;50.078;13.704;2024-03-06T04:38:50;66.57;;;35.55;;
56893;SDS011;43392;50.078;13.704;2024-03-06T04:41:18;68.40;;;36.72;;
56893;SDS011;43392;50.078;13.704;2024-03-06T04:43:45;64.18;;;34.53;;
56893;SDS011;43392;50.078;13.704;2024-03-06T04:46:12;65.13;;;33.92;;
56893;SDS011;43392;50.078;13.704;2024-03-06T04:48:39;73.60;;;36.78;;
56893;SDS011;43392;50.078;13.704;2024-03-06T04:51:06;65.55;;;36.38;;
56893;SDS011;43392;50.078;13.704;2024-03-06T04:53:34;68.18;;;35.38;;
56893;SDS011;43392;50.078;13.704;2024-03-06T04:56:02;65.20;;;34.40;;
56893;SDS011;43392;50.078;13.704;2024-03-06T04:58:29;73.20;;;38.33;;
56893;SDS011;43392;50.078;13.704;2024-03-06T05:00:56;70.65;;;36.22;;
56893;SDS011;43392;50.078;13.704;2024-03-06T05:03:23;73.88;;;38.10;;
56893;SDS011;43392;50.078;13.704;2024-03-06T05:05:49;71.07;;;38.53;;
56893;SDS011;43392;50.078;13.704;2024-03-06T05:08:16;77.13;;;38.38;;
56893;SDS011;43392;50.078;13.704;2024-03-06T05:10:43;74.28;;;39.78;;
56893;SDS011;43392;50.078;13.704;2024-03-06T05:13:11;69.70;;;37.45;;
56893;SDS011;43392;50.078;13.704;2024-03-06T05:15:38;75.47;;;40.35;;
56893;SDS011;43392;50.078;13.704;2024-03-06T05:18:05;81.70;;;39.75;;
56893;SDS011;43392;50.078;13.704;2024-03-06T05:20:32;75.10;;;38.63;;
56893;SDS011;43392;50.078;13.704;2024-03-06T05:22:59;82.18;;;40.78;;
56893;SDS011;43392;50.078;13.704;2024-03-06T05:25:25;76.40;;;39.75;;
56893;SDS011;43392;50.078;13.704;2024-03-06T05:27:52;75.18;;;38.85;;
56893;SDS011;43392;50.078;13.704;2024-03-06T05:30:20;79.78;;;41.47;;
56893;SDS011;43392;50.078;13.704;2024-03-06T05:32:46;76.53;;;41.20;;
56893;SDS011;43392;50.078;13.704;2024-03-06T05:35:13;78.43;;;40.42;;
56893;SDS011;43392;50.078;13.704;2024-03-06T05:37:40;79.93;;;40.22;;
56893;SDS011;43392;50.078;13.704;2024-03-06T05:40:07;77.93;;;39.20;;
56893;SDS011;43392;50.078;13.704;2024-03-06T05:42:34;79.05;;;40.78;;
56893;SDS011;43392;50.078;13.704;2024-03-06T05:45:01;84.03;;;41.20;;
56893;SDS011;43392;50.078;13.704;2024-03-06T05:47:32;78.05;;;40.63;;
56893;SDS011;43392;50.078;13.704;2024-03-06T05:49:59;82.35;;;42.28;;
56893;SDS011;43392;50.078;13.704;2024-03-06T05:52:26;90.93;;;43.78;;
56893;SDS011;43392;50.078;13.704;2024-03-06T05:54:52;79.13;;;43.33;;
56893;SDS011;43392;50.078;13.704;2024-03-06T05:57:19;91.05;;;44.78;;
56893;SDS011;43392;50.078;13.704;2024-03-06T05:59:45;84.18;;;42.83;;
56893;SDS011;43392;50.078;13.704;2024-03-06T06:02:12;83.28;;;42.33;;
56893;SDS011;43392;50.078;13.704;2024-03-06T06:04:42;81.03;;;41.53;;
56893;SDS011;43392;50.078;13.704;2024-03-06T06:07:09;79.03;;;40.00;;
56893;SDS011;43392;50.078;13.704;2024-03-06T06:09:36;80.13;;;40.45;;
56893;SDS011;43392;50.078;13.704;2024-03-06T06:12:02;80.25;;;38.80;;
56893;SDS011;43392;50.078;13.704;2024-03-06T06:14:29;79.95;;;41.13;;
56893;SDS011;43392;50.078;13.704;2024-03-06T06:16:56;81.63;;;41.80;;
56893;SDS011;43392;50.078;13.704;2024-03-06T06:19:23;86.53;;;43.67;;
56893;SDS011;43392;50.078;13.704;2024-03-06T06:21:52;84.35;;;44.00;;
56893;SDS011;43392;50.078;13.704;2024-03-06T06:24:20;89.18;;;42.63;;
56893;SDS011;43392;50.078;13.704;2024-03-06T06:26:46;95.65;;;45.90;;
56893;SDS011;43392;50.078;13.704;2024-03-06T06:29:13;88.15;;;44.53;;
56893;SDS011;43392;50.078;13.704;2024-03-06T06:31:39;98.22;;;46.72;;
56893;SDS011;43392;50.078;13.704;2024-03-06T06:34:06;93.53;;;44.63;;
56893;SDS011;43392;50.078;13.704;2024-03-06T06:36:33;89.90;;;44.15;;
56893;SDS011;43392;50.078;13.704;2024-03-06T06:39:01;77.97;;;41.13;;
56893;SDS011;43392;50.078;13.704;2024-03-06T06:41:27;97.25;;;45.13;;
56893;SDS011;43392;50.078;13.704;2024-03-06T06:43:54;103.50;;;48.47;;
56893;SDS011;43392;50.078;13.704;2024-03-06T06:46:21;94.85;;;45.85;;
56893;SDS011;43392;50.078;13.704;2024-03-06T06:48:47;85.30;;;43.97;;
56893;SDS011;43392;50.078;13.704;2024-03-06T06:51:14;77.15;;;41.55;;
56893;SDS011;43392;50.078;13.704;2024-03-06T06:53:40;73.75;;;39.97;;
56893;SDS011;43392;50.078;13.704;2024-03-06T06:56:09;87.03;;;44.83;;
56893;SDS011;43392;50.078;13.704;2024-03-06T06:58:35;80.35;;;42.50;;
56893;SDS011;43392;50.078;13.704;2024-03-06T07:01:02;123.43;;;58.03;;
56893;SDS011;43392;50.078;13.704;2024-03-06T07:03:29;164.75;;;80.20;;
56893;SDS011;43392;50.078;13.704;2024-03-06T07:05:56;111.45;;;55.75;;
56893;SDS011;43392;50.078;13.704;2024-03-06T07:08:23;134.98;;;70.47;;
56893;SDS011;43392;50.078;13.704;2024-03-06T07:10:49;209.60;;;113.55;;
56893;SDS011;43392;50.078;13.704;2024-03-06T07:13:19;121.82;;;63.28;;
56893;SDS011;43392;50.078;13.704;2024-03-06T07:15:46;92.30;;;48.88;;
56893;SDS011;43392;50.078;13.704;2024-03-06T07:18:13;72.18;;;38.63;;
56893;SDS011;43392;50.078;13.704;2024-03-06T07:20:39;71.10;;;38.05;;
56893;SDS011;43392;50.078;13.704;2024-03-06T07:23:06;63.00;;;35.60;;
56893;SDS011;43392;50.078;13.704;2024-03-06T07:25:33;73.47;;;38.13;;
56893;SDS011;43392;50.078;13.704;2024-03-06T07:27:59;72.28;;;38.80;;
56893;SDS011;43392;50.078;13.704;2024-03-06T07:30:27;69.55;;;36.40;;
56893;SDS011;43392;50.078;13.704;2024-03-06T07:32:55;62.97;;;34.72;;
56893;SDS011;43392;50.078;13.704;2024-03-06T07:35:24;65.57;;;35.17;;
56893;SDS011;43392;50.078;13.704;2024-03-06T07:37:51;58.15;;;32.33;;
56893;SDS011;43392;50.078;13.704;2024-03-06T07:40:18;65.40;;;33.90;;
56893;SDS011;43392;50.078;13.704;2024-03-06T07:42:44;59.85;;;32.92;;
56893;SDS011;43392;50.078;13.704;2024-03-06T07:45:11;60.50;;;32.83;;
56893;SDS011;43392;50.078;13.704;2024-03-06T07:47:39;61.63;;;33.25;;
56893;SDS011;43392;50.078;13.704;2024-03-06T07:50:06;61.03;;;32.22;;
56893;SDS011;43392;50.078;13.704;2024-03-06T07:52:36;60.90;;;33.78;;
56893;SDS011;43392;50.078;13.704;2024-03-06T07:55:02;62.35;;;33.67;;
56893;SDS011;43392;50.078;13.704;2024-03-06T07:57:30;62.38;;;33.90;;
56893;SDS011;43392;50.078;13.704;2024-03-06T07:59:57;66.78;;;34.40;;
56893;SDS011;43392;50.078;13.704;2024-03-06T08:02:23;73.75;;;40.13;;
56893;SDS011;43392;50.078;13.704;2024-03-06T08:04:51;63.80;;;34.88;;
56893;SDS011;43392;50.078;13.704;2024-03-06T08:07:18;63.95;;;34.60;;
56893;SDS011;43392;50.078;13.704;2024-03-06T08:09:45;60.83;;;33.38;;
56893;SDS011;43392;50.078;13.704;2024-03-06T08:12:11;68.47;;;33.55;;
56893;SDS011;43392;50.078;13.704;2024-03-06T08:14:38;64.13;;;36.47;;
56893;SDS011;43392;50.078;13.704;2024-03-06T08:17:04;69.18;;;41.47;;
56893;SDS011;43392;50.078;13.704;2024-03-06T08:19:31;61.13;;;33.90;;
56893;SDS011;43392;50.078;13.704;2024-03-06T08:21:59;52.80;;;30.73;;
56893;SDS011;43392;50.078;13.704;2024-03-06T08:24:26;63.83;;;31.85;;
56893;SDS011;43392;50.078;13.704;2024-03-06T08:26:53;59.78;;;32.58;;
56893;SDS011;43392;50.078;13.704;2024-03-06T08:29:20;63.10;;;33.78;;
56893;SDS011;43392;50.078;13.704;2024-03-06T08:31:47;59.50;;;31.13;;
56893;SDS011;43392;50.078;13.704;2024-03-06T08:34:13;57.90;;;33.00;;
56893;SDS011;43392;50.078;13.704;2024-03-06T08:36:41;61.13;;;32.25;;
56893;SDS011;43392;50.078;13.704;2024-03-06T08:39:09;59.28;;;33.47;;
56893;SDS011;43392;50.078;13.704;2024-03-06T08:41:38;55.25;;;31.13;;
56893;SDS011;43392;50.078;13.704;2024-03-06T08:44:05;63.72;;;33.35;;
56893;SDS011;43392;50.078;13.704;2024-03-06T08:46:31;64.15;;;34.13;;
56893;SDS011;43392;50.078;13.704;2024-03-06T08:48:58;57.63;;;33.47;;
56893;SDS011;43392;50.078;13.704;2024-03-06T08:51:25;62.13;;;33.22;;
56893;SDS011;43392;50.078;13.704;2024-03-06T08:53:51;64.50;;;33.90;;
56893;SDS011;43392;50.078;13.704;2024-03-06T08:56:19;61.28;;;32.17;;
56893;SDS011;43392;50.078;13.704;2024-03-06T08:58:46;56.63;;;32.35;;
56893;SDS011;43392;50.078;13.704;2024-03-06T09:01:12;57.55;;;32.60;;
56893;SDS011;43392;50.078;13.704;2024-03-06T09:03:39;55.70;;;32.90;;
56893;SDS011;43392;50.078;13.704;2024-03-06T09:06:06;57.17;;;31.70;;
56893;SDS011;43392;50.078;13.704;2024-03-06T09:08:32;55.35;;;33.40;;
56893;SDS011;43392;50.078;13.704;2024-03-06T09:10:59;56.95;;;31.83;;
56893;SDS011;43392;50.078;13.704;2024-03-06T09:13:27;55.05;;;32.63;;
56893;SDS011;43392;50.078;13.704;2024-03-06T09:15:54;59.95;;;33.25;;
56893;SDS011;43392;50.078;13.704;2024-03-06T09:18:20;61.25;;;33.78;;
56893;SDS011;43392;50.078;13.704;2024-03-06T09:20:47;61.45;;;34.72;;
56893;SDS011;43392;50.078;13.704;2024-03-06T09:23:13;56.47;;;32.75;;
56893;SDS011;43392;50.078;13.704;2024-03-06T09:25:40;60.78;;;34.65;;
56893;SDS011;43392;50.078;13.704;2024-03-06T09:28:07;57.75;;;34.33;;
56893;SDS011;43392;50.078;13.704;2024-03-06T09:30:35;57.00;;;33.00;;
56893;SDS011;43392;50.078;13.704;2024-03-06T09:33:02;57.40;;;32.78;;
56893;SDS011;43392;50.078;13.704;2024-03-06T09:35:28;65.53;;;34.08;;
56893;SDS011;43392;50.078;13.704;2024-03-06T09:37:57;57.05;;;32.63;;
56893;SDS011;43392;50.078;13.704;2024-03-06T09:40:26;59.05;;;32.95;;
56893;SDS011;43392;50.078;13.704;2024-03-06T09:42:54;59.15;;;32.78;;
56893;SDS011;43392;50.078;13.704;2024-03-06T09:45:21;63.13;;;34.42;;
56893;SDS011;43392;50.078;13.704;2024-03-06T09:47:49;66.50;;;35.30;;
56893;SDS011;43392;50.078;13.704;2024-03-06T09:50:17;55.85;;;33.85;;
56893;SDS011;43392;50.078;13.704;2024-03-06T09:52:49;61.85;;;33.95;;
56893;SDS011;43392;50.078;13.704;2024-03-06T09:55:17;58.33;;;32.33;;
56893;SDS011;43392;50.078;13.704;2024-03-06T09:57:44;52.35;;;30.83;;
56893;SDS011;43392;50.078;13.704;2024-03-06T10:00:11;56.17;;;32.22;;
56893;SDS011;43392;50.078;13.704;2024-03-06T10:02:40;62.13;;;34.97;;
56893;SDS011;43392;50.078;13.704;2024-03-06T10:05:21;60.60;;;32.58;;
56893;SDS011;43392;50.078;13.704;2024-03-06T10:07:49;54.33;;;32.72;;
56893;SDS011;43392;50.078;13.704;2024-03-06T10:10:17;60.72;;;33.13;;
56893;SDS011;43392;50.078;13.704;2024-03-06T10:12:44;55.42;;;33.70;;
56893;SDS011;43392;50.078;13.704;2024-03-06T10:15:12;55.90;;;32.88;;
56893;SDS011;43392;50.078;13.704;2024-03-06T10:17:39;54.65;;;32.35;;
56893;SDS011;43392;50.078;13.704;2024-03-06T10:20:16;54.67;;;31.95;;
56893;SDS011;43392;50.078;13.704;2024-03-06T10:22:47;54.92;;;33.17;;
56893;SDS011;43392;50.078;13.704;2024-03-06T10:25:15;54.90;;;31.77;;
56893;SDS011;43392;50.078;13.704;2024-03-06T10:27:44;61.08;;;34.97;;
56893;SDS011;43392;50.078;13.704;2024-03-06T10:30:11;52.70;;;31.10;;
56893;SDS011;43392;50.078;13.704;2024-03-06T10:32:41;53.83;;;30.70;;
56893;SDS011;43392;50.078;13.704;2024-03-06T10:35:17;50.00;;;30.83;;
56893;SDS011;43392;50.078;13.704;2024-03-06T10:37:44;56.05;;;32.08;;
56893;SDS011;43392;50.078;13.704;2024-03-06T10:40:13;55.33;;;31.33;;
56893;SDS011;43392;50.078;13.704;2024-03-06T10:42:42;58.47;;;32.40;;
56893;SDS011;43392;50.078;13.704;2024-03-06T10:45:11;51.97;;;31.25;;
56893;SDS011;43392;50.078;13.704;2024-03-06T10:47:40;55.10;;;31.77;;
56893;SDS011;43392;50.078;13.704;2024-03-06T10:50:08;56.15;;;31.50;;
56893;SDS011;43392;50.078;13.704;2024-03-06T10:52:36;53.70;;;30.98;;
56893;SDS011;43392;50.078;13.704;2024-03-06T10:55:04;55.60;;;31.50;;
56893;SDS011;43392;50.078;13.704;2024-03-06T10:57:33;55.28;;;31.08;;
56893;SDS011;43392;50.078;13.704;2024-03-06T11:00:01;56.65;;;31.20;;
56893;SDS011;43392;50.078;13.704;2024-03-06T11:02:28;51.83;;;30.15;;
56893;SDS011;43392;50.078;13.704;2024-03-06T11:04:56;53.80;;;29.42;;
56893;SDS011;43392;50.078;13.704;2024-03-06T11:07:23;56.78;;;32.88;;
56893;SDS011;43392;50.078;13.704;2024-03-06T11:09:49;56.75;;;32.22;;
56893;SDS011;43392;50.078;13.704;2024-03-06T11:15:01;54.15;;;31.23;;
56893;SDS011;43392;50.078;13.704;2024-03-06T11:17:36;56.85;;;31.50;;
56893;SDS011;43392;50.078;13.704;2024-03-06T11:20:12;54.03;;;31.15;;
56893;SDS011;43392;50.078;13.704;2024-03-06T11:23:01;51.80;;;30.13;;
56893;SDS011;43392;50.078;13.704;2024-03-06T11:28:32;60.58;;;34.70;;
56893;SDS011;43392;50.078;13.704;2024-03-06T11:31:00;60.10;;;33.80;;
56893;SDS011;43392;50.078;13.704;2024-03-06T11:33:28;57.85;;;31.45;;
56893;SDS011;43392;50.078;13.704;2024-03-06T11:36:14;55.65;;;31.58;;
56893;SDS011;43392;50.078;13.704;2024-03-06T11:38:46;58.83;;;32.88;;
56893;SDS011;43392;50.078;13.704;2024-03-06T11:41:23;58.73;;;31.90;;
56893;SDS011;43392;50.078;13.704;2024-03-06T11:43:53;58.50;;;32.25;;
56893;SDS011;43392;50.078;13.704;2024-03-06T11:46:21;56.17;;;30.88;;
56893;SDS011;43392;50.078;13.704;2024-03-06T11:48:51;56.33;;;32.53;;
56893;SDS011;43392;50.078;13.704;2024-03-06T11:51:19;55.10;;;32.83;;
56893;SDS011;43392;50.078;13.704;2024-03-06T11:53:49;61.50;;;33.25;;
56893;SDS011;43392;50.078;13.704;2024-03-06T11:56:16;59.50;;;33.90;;
56893;SDS011;43392;50.078;13.704;2024-03-06T11:58:44;58.55;;;32.60;;
56893;SDS011;43392;50.078;13.704;2024-03-06T12:01:13;58.40;;;33.53;;
56893;SDS011;43392;50.078;13.704;2024-03-06T12:03:39;60.08;;;34.17;;
56893;SDS011;43392;50.078;13.704;2024-03-06T12:06:07;61.35;;;32.20;;
56893;SDS011;43392;50.078;13.704;2024-03-06T12:08:34;59.33;;;32.20;;
56893;SDS011;43392;50.078;13.704;2024-03-06T12:11:02;54.88;;;32.78;;
56893;SDS011;43392;50.078;13.704;2024-03-06T12:13:29;57.97;;;32.10;;
56893;SDS011;43392;50.078;13.704;2024-03-06T12:15:56;50.20;;;29.35;;
56893;SDS011;43392;50.078;13.704;2024-03-06T12:18:24;54.15;;;31.50;;
56893;SDS011;43392;50.078;13.704;2024-03-06T12:20:51;55.17;;;29.52;;
56893;SDS011;43392;50.078;13.704;2024-03-06T12:23:20;53.15;;;29.77;;
56893;SDS011;43392;50.078;13.704;2024-03-06T12:28:15;56.28;;;29.50;;
56893;SDS011;43392;50.078;13.704;2024-03-06T12:30:43;49.22;;;29.08;;
56893;SDS011;43392;50.078;13.704;2024-03-06T12:33:10;41.65;;;23.50;;
56893;SDS011;43392;50.078;13.704;2024-03-06T12:35:41;44.97;;;24.27;;
56893;SDS011;43392;50.078;13.704;2024-03-06T12:38:14;39.67;;;23.35;;
56893;SDS011;43392;50.078;13.704;2024-03-06T12:40:41;39.47;;;22.88;;
56893;SDS011;43392;50.078;13.704;2024-03-06T12:43:08;51.20;;;27.42;;
56893;SDS011;43392;50.078;13.704;2024-03-06T12:45:36;52.63;;;27.88;;
56893;SDS011;43392;50.078;13.704;2024-03-06T12:48:02;47.80;;;28.15;;
56893;SDS011;43392;50.078;13.704;2024-03-06T12:50:31;52.53;;;28.42;;
56893;SDS011;43392;50.078;13.704;2024-03-06T12:52:59;52.47;;;26.40;;
56893;SDS011;43392;50.078;13.704;2024-03-06T12:55:26;49.30;;;26.23;;
56893;SDS011;43392;50.078;13.704;2024-03-06T12:57:52;44.28;;;25.45;;
56893;SDS011;43392;50.078;13.704;2024-03-06T13:00:19;44.80;;;24.75;;
56893;SDS011;43392;50.078;13.704;2024-03-06T13:02:46;43.47;;;25.63;;
56893;SDS011;43392;50.078;13.704;2024-03-06T13:05:12;43.88;;;24.95;;
56893;SDS011;43392;50.078;13.704;2024-03-06T13:07:39;42.40;;;24.80;;
56893;SDS011;43392;50.078;13.704;2024-03-06T13:10:09;41.80;;;24.85;;
56893;SDS011;43392;50.078;13.704;2024-03-06T13:12:36;43.47;;;25.52;;
56893;SDS011;43392;50.078;13.704;2024-03-06T13:15:03;37.92;;;24.15;;
56893;SDS011;43392;50.078;13.704;2024-03-06T13:17:32;36.05;;;22.80;;
56893;SDS011;43392;50.078;13.704;2024-03-06T13:19:58;36.10;;;21.85;;
56893;SDS011;43392;50.078;13.704;2024-03-06T13:22:25;40.67;;;22.58;;
56893;SDS011;43392;50.078;13.704;2024-03-06T13:24:52;37.65;;;23.77;;
56893;SDS011;43392;50.078;13.704;2024-03-06T13:27:20;36.95;;;20.85;;
56893;SDS011;43392;50.078;13.704;2024-03-06T13:29:46;33.28;;;20.10;;
56893;SDS011;43392;50.078;13.704;2024-03-06T13:32:13;32.42;;;19.55;;
56893;SDS011;43392;50.078;13.704;2024-03-06T13:34:39;30.23;;;18.77;;
56893;SDS011;43392;50.078;13.704;2024-03-06T13:37:06;32.78;;;19.83;;
56893;SDS011;43392;50.078;13.704;2024-03-06T13:39:33;33.70;;;18.67;;
56893;SDS011;43392;50.078;13.704;2024-03-06T13:41:59;32.42;;;19.05;;
56893;SDS011;43392;50.078;13.704;2024-03-06T13:44:27;30.77;;;19.02;;
56893;SDS011;43392;50.078;13.704;2024-03-06T13:46:54;33.63;;;19.15;;
56893;SDS011;43392;50.078;13.704;2024-03-06T13:49:36;29.33;;;17.90;;
56893;SDS011;43392;50.078;13.704;2024-03-06T13:52:05;31.92;;;17.85;;
56893;SDS011;43392;50.078;13.704;2024-03-06T13:54:35;31.13;;;16.45;;
56893;SDS011;43392;50.078;13.704;2024-03-06T13:57:02;29.02;;;17.52;;
56893;SDS011;43392;50.078;13.704;2024-03-06T13:59:31;34.88;;;19.05;;
56893;SDS011;43392;50.078;13.704;2024-03-06T14:01:57;31.15;;;18.30;;
56893;SDS011;43392;50.078;13.704;2024-03-06T14:04:25;31.13;;;17.83;;
56893;SDS011;43392;50.078;13.704;2024-03-06T14:06:52;30.80;;;17.38;;
56893;SDS011;43392;50.078;13.704;2024-03-06T14:09:19;29.15;;;16.83;;
56893;SDS011;43392;50.078;13.704;2024-03-06T14:11:48;28.95;;;16.83;;
56893;SDS011;43392;50.078;13.704;2024-03-06T14:14:15;29.17;;;17.75;;
56893;SDS011;43392;50.078;13.704;2024-03-06T14:16:43;30.00;;;16.48;;
56893;SDS011;43392;50.078;13.704;2024-03-06T14:19:10;29.90;;;16.80;;